Time;durP1;ratioP1;P1;durP2;ratioP2;P2;SDS_P1;SDS_P2;PMS_P1;PMS_P2;Temp;Humidity;BMP_temperature;BMP_pressure;BME280_temperature;BME280_humidity;BME280_pressure;Samples;Min_cycle;Max_cycle;Signal;HPM_P1;HPM_P2
2021/12/10 00:02:02;;;;;;;24.98;3.78;;;6.50;99.90;;;;;;5053819;28;20063;-70
2021/12/10 00:04:34;;;;;;;20.15;2.95;;;6.50;99.90;;;;;;5063432;28;20063;-69
2021/12/10 00:07:18;;;;;;;18.88;2.13;;;6.50;99.90;;;;;;5069373;28;20056;-67
2021/12/10 00:10:00;;;;;;;21.75;2.75;;;6.50;99.90;;;;;;5067374;28;20051;-68
2021/12/10 00:12:33;;;;;;;17.10;2.08;;;6.40;99.90;;;;;;5067356;28;20048;-64
2021/12/10 00:15:02;;;;;;;11.30;2.78;;;6.30;99.90;;;;;;5063469;28;20063;-63
2021/12/10 00:17:31;;;;;;;14.23;1.58;;;6.20;99.90;;;;;;5052445;28;20052;-65
2021/12/10 00:20:00;;;;;;;15.85;2.35;;;6.10;99.90;;;;;;5068674;28;20052;-65
2021/12/10 00:22:38;;;;;;;24.00;2.60;;;6.00;99.90;;;;;;5068787;28;20216;-66
2021/12/10 00:25:12;;;;;;;18.40;3.75;;;6.00;99.90;;;;;;5067666;28;20049;-65
2021/12/10 00:27:41;;;;;;;27.42;2.95;;;5.90;99.90;;;;;;5068660;28;20044;-64
2021/12/10 00:30:14;;;;;;;20.88;2.55;;;5.90;99.90;;;;;;5062358;28;20040;-64
2021/12/10 00:32:47;;;;;;;22.35;3.17;;;5.80;99.90;;;;;;5047768;28;20056;-64
2021/12/10 00:35:23;;;;;;;22.20;2.65;;;5.80;99.90;;;;;;5062680;28;20053;-65
2021/12/10 00:37:51;;;;;;;16.38;2.28;;;5.80;99.90;;;;;;5050010;28;20519;-64
2021/12/10 00:40:21;;;;;;;28.55;4.90;;;5.80;99.90;;;;;;5064403;28;20040;-64
2021/12/10 00:42:49;;;;;;;33.70;4.10;;;5.80;99.90;;;;;;5067418;28;20484;-65
2021/12/10 00:45:18;;;;;;;21.08;3.03;;;5.80;99.90;;;;;;5061650;28;20041;-64
2021/12/10 00:47:47;;;;;;;22.42;2.38;;;5.70;99.90;;;;;;5050446;28;20199;-65
2021/12/10 00:50:26;;;;;;;20.30;2.33;;;5.70;99.90;;;;;;5068570;28;20049;-66
2021/12/10 00:52:55;;;;;;;21.85;2.45;;;5.70;99.90;;;;;;5067742;28;20765;-65
2021/12/10 00:55:24;;;;;;;25.20;2.95;;;5.70;99.90;;;;;;5066382;28;20040;-65
2021/12/10 00:57:53;;;;;;;20.00;4.20;;;5.70;99.90;;;;;;5067967;28;20079;-64
2021/12/10 01:00:26;;;;;;;22.92;3.10;;;5.70;99.90;;;;;;5063060;28;20044;-65
2021/12/10 01:02:54;;;;;;;23.65;3.97;;;5.70;99.90;;;;;;5046394;28;20048;-65
2021/12/10 01:05:24;;;;;;;29.55;3.85;;;5.70;99.90;;;;;;5063761;28;20049;-65
2021/12/10 01:07:52;;;;;;;26.65;2.72;;;5.70;99.90;;;;;;5066996;28;20052;-64
2021/12/10 01:10:28;;;;;;;31.83;2.33;;;5.70;99.90;;;;;;5066242;28;20053;-65
2021/12/10 01:13:01;;;;;;;32.88;3.28;;;5.70;99.90;;;;;;5067838;28;20053;-65
2021/12/10 01:24:19;;;;;;;19.73;2.47;;;5.50;99.90;;;;;;5049644;28;20048;-65
2021/12/10 01:29:20;;;;;;;15.15;2.17;;;5.50;99.90;;;;;;5066257;28;20040;-66
2021/12/10 01:31:48;;;;;;;12.75;2.17;;;5.40;99.90;;;;;;5064755;28;20048;-65
2021/12/10 01:34:16;;;;;;;34.63;2.63;;;5.40;99.90;;;;;;5067220;28;20045;-67
2021/12/10 01:36:45;;;;;;;25.80;2.42;;;5.40;99.90;;;;;;5068296;28;20052;-65
2021/12/10 01:39:17;;;;;;;15.88;1.75;;;5.30;99.90;;;;;;5067802;28;20470;-66
2021/12/10 01:41:53;;;;;;;15.35;1.92;;;5.30;99.90;;;;;;5066478;28;20056;-65
2021/12/10 01:44:29;;;;;;;23.52;2.95;;;5.20;99.90;;;;;;5067305;28;20045;-66
2021/12/10 01:47:00;;;;;;;10.63;1.33;;;5.20;99.90;;;;;;5065131;28;20051;-69
2021/12/10 01:49:29;;;;;;;18.83;2.00;;;5.20;99.90;;;;;;5066527;28;20091;-71
2021/12/10 01:51:58;;;;;;;19.85;2.30;;;5.20;99.90;;;;;;5065896;28;20055;-69
2021/12/10 01:54:30;;;;;;;17.63;1.60;;;5.20;99.90;;;;;;5051301;28;20404;-69
2021/12/10 01:57:02;;;;;;;15.60;1.73;;;5.20;99.90;;;;;;5071470;28;20484;-69
2021/12/10 01:59:33;;;;;;;18.58;3.10;;;5.20;99.90;;;;;;5071357;28;20056;-67
2021/12/10 02:02:08;;;;;;;16.58;2.20;;;5.10;99.90;;;;;;5055787;28;20381;-67
2021/12/10 02:04:38;;;;;;;17.30;1.92;;;5.10;99.90;;;;;;5066866;28;20040;-70
2021/12/10 02:07:09;;;;;;;11.05;2.88;;;5.00;99.90;;;;;;5071271;28;20050;-66
2021/12/10 02:09:37;;;;;;;19.58;2.47;;;5.00;99.90;;;;;;5086467;28;20049;-70
2021/12/10 02:12:05;;;;;;;19.80;2.25;;;5.00;99.90;;;;;;5069264;28;20041;-69
2021/12/10 02:14:33;;;;;;;20.30;2.33;;;4.90;99.90;;;;;;5069425;28;20047;-69
2021/12/10 02:17:04;;;;;;;21.48;1.83;;;4.90;99.90;;;;;;5055293;28;20041;-68
2021/12/10 02:19:32;;;;;;;15.68;2.08;;;4.90;99.90;;;;;;5066056;28;20057;-68
2021/12/10 02:22:01;;;;;;;26.88;3.15;;;4.90;99.90;;;;;;5069619;28;20040;-70
2021/12/10 02:24:29;;;;;;;19.48;1.65;;;4.80;99.90;;;;;;5070956;28;20044;-67
2021/12/10 02:27:01;;;;;;;10.57;1.83;;;4.80;99.90;;;;;;5071058;28;20317;-66
2021/12/10 02:29:32;;;;;;;14.25;1.98;;;4.80;99.90;;;;;;5070904;28;20052;-70
2021/12/10 02:32:00;;;;;;;18.63;2.25;;;4.70;99.90;;;;;;5057771;28;20044;-70
2021/12/10 02:34:28;;;;;;;20.80;2.22;;;4.80;99.90;;;;;;5054237;28;20055;-69
2021/12/10 02:36:56;;;;;;;22.55;1.42;;;4.80;99.90;;;;;;5066647;28;20045;-69
2021/12/10 02:39:26;;;;;;;20.85;2.10;;;4.70;99.90;;;;;;5074284;28;20055;-70
2021/12/10 02:41:55;;;;;;;9.88;1.20;;;4.70;99.90;;;;;;5074101;28;20484;-69
2021/12/10 02:44:27;;;;;;;17.70;1.73;;;4.70;99.90;;;;;;5074519;28;20052;-67
2021/12/10 02:46:56;;;;;;;13.68;2.17;;;4.60;99.90;;;;;;5059946;28;20063;-67
2021/12/10 02:49:25;;;;;;;9.82;1.90;;;4.50;99.90;;;;;;5074103;28;20052;-67
2021/12/10 02:51:53;;;;;;;18.30;1.80;;;4.50;99.90;;;;;;5072769;28;20512;-67
2021/12/10 02:54:32;;;;;;;17.02;1.83;;;4.40;99.90;;;;;;5073857;28;20045;-66
2021/12/10 02:57:16;;;;;;;6.45;1.10;;;4.30;99.90;;;;;;5073926;28;20056;-66
2021/12/10 02:59:44;;;;;;;24.48;2.13;;;4.30;99.90;;;;;;5073249;28;20047;-67
2021/12/10 03:02:15;;;;;;;7.15;0.60;;;4.20;99.90;;;;;;5073526;28;20037;-67
2021/12/10 03:04:44;;;;;;;11.93;1.30;;;4.20;99.90;;;;;;5073936;28;20056;-69
2021/12/10 03:07:16;;;;;;;13.77;1.92;;;4.10;99.90;;;;;;5072488;28;20040;-67
2021/12/10 03:09:46;;;;;;;10.10;1.20;;;4.00;99.90;;;;;;5072619;28;20048;-67
2021/12/10 03:12:16;;;;;;;10.13;2.70;;;4.00;99.90;;;;;;5073711;28;20045;-67
2021/12/10 03:14:48;;;;;;;7.88;1.25;;;3.90;99.90;;;;;;5072056;28;20054;-66
2021/12/10 03:17:23;;;;;;;14.70;1.10;;;3.90;99.90;;;;;;5073622;28;20410;-66
2021/12/10 03:19:51;;;;;;;18.30;2.42;;;3.90;99.90;;;;;;5072235;28;20047;-66
2021/12/10 03:22:19;;;;;;;6.35;0.55;;;4.00;99.90;;;;;;5073075;28;20059;-69
2021/12/10 03:24:47;;;;;;;15.27;1.30;;;3.90;99.90;;;;;;5073379;28;20099;-68
2021/12/10 03:27:15;;;;;;;17.10;3.05;;;3.90;99.90;;;;;;5072870;28;20404;-66
2021/12/10 03:29:44;;;;;;;16.48;1.55;;;3.90;99.90;;;;;;5073288;28;20056;-67
2021/12/10 03:32:20;;;;;;;7.33;1.23;;;3.80;99.90;;;;;;5072878;28;20056;-65
2021/12/10 03:34:52;;;;;;;9.05;1.48;;;3.90;99.90;;;;;;5071973;28;20294;-67
2021/12/10 03:37:20;;;;;;;8.57;1.63;;;3.90;99.90;;;;;;5071760;28;20048;-67
2021/12/10 03:39:50;;;;;;;10.25;1.45;;;3.90;99.90;;;;;;5073012;28;20059;-70
2021/12/10 03:42:18;;;;;;;16.33;2.15;;;3.90;99.90;;;;;;5073079;28;20484;-66
2021/12/10 03:44:46;;;;;;;13.70;1.45;;;3.90;99.90;;;;;;5073132;28;20574;-66
2021/12/10 03:47:15;;;;;;;10.05;1.42;;;3.90;99.90;;;;;;5071345;28;20056;-67
2021/12/10 03:49:43;;;;;;;12.10;1.23;;;3.90;99.90;;;;;;5073052;28;20052;-67
2021/12/10 03:52:11;;;;;;;5.95;0.80;;;3.90;99.90;;;;;;5072499;28;20289;-67
2021/12/10 03:54:41;;;;;;;11.13;1.15;;;3.90;99.90;;;;;;5072638;28;20048;-66
2021/12/10 03:57:10;;;;;;;10.93;1.13;;;3.90;99.90;;;;;;5072666;28;20036;-66
2021/12/10 03:59:38;;;;;;;30.98;1.38;;;3.90;99.90;;;;;;5072562;28;20055;-67
2021/12/10 04:02:08;;;;;;;7.43;1.02;;;3.80;99.90;;;;;;5071486;28;20041;-66
2021/12/10 04:04:44;;;;;;;27.35;3.13;;;3.80;99.90;;;;;;5071511;28;20044;-68
2021/12/10 04:07:18;;;;;;;8.18;0.82;;;3.80;99.90;;;;;;5052640;28;20052;-66
2021/12/10 04:09:47;;;;;;;8.90;2.65;;;3.70;99.90;;;;;;5052484;28;20048;-70
2021/12/10 04:12:15;;;;;;;16.23;2.30;;;3.70;99.90;;;;;;5052408;28;20048;-70
2021/12/10 04:14:44;;;;;;;13.30;1.00;;;3.60;99.90;;;;;;5065993;28;20063;-69
2021/12/10 04:17:13;;;;;;;10.27;1.17;;;3.60;99.90;;;;;;5071785;28;20041;-70
2021/12/10 04:19:41;;;;;;;9.37;1.63;;;3.50;99.90;;;;;;5071716;28;20056;-71
2021/12/10 04:22:13;;;;;;;10.68;1.30;;;3.50;99.90;;;;;;5071932;28;20288;-70
2021/12/10 04:24:41;;;;;;;4.50;1.23;;;3.50;99.90;;;;;;5072380;28;20045;-74
2021/12/10 04:27:12;;;;;;;15.05;1.35;;;3.50;99.90;;;;;;5070946;28;20045;-69
2021/12/10 04:29:44;;;;;;;14.10;1.60;;;3.50;99.90;;;;;;5072320;28;20484;-71
2021/12/10 04:32:13;;;;;;;13.45;1.45;;;3.60;99.90;;;;;;5070596;28;20048;-71
2021/12/10 04:34:43;;;;;;;8.10;1.17;;;3.60;99.90;;;;;;5070894;28;20048;-71
2021/12/10 04:37:11;;;;;;;9.45;1.02;;;3.60;99.90;;;;;;5071993;28;20044;-68
2021/12/10 04:39:45;;;;;;;9.60;1.08;;;3.60;99.90;;;;;;5072034;28;20044;-68
2021/12/10 04:42:17;;;;;;;11.10;1.17;;;3.50;99.90;;;;;;5070380;28;20055;-72
2021/12/10 04:44:46;;;;;;;12.48;1.33;;;3.50;99.90;;;;;;5071881;28;20041;-68
2021/12/10 04:47:14;;;;;;;15.25;1.52;;;3.50;99.90;;;;;;5071702;28;20048;-72
2021/12/10 04:49:42;;;;;;;17.80;2.42;;;3.50;99.90;;;;;;5071887;28;20052;-71
2021/12/10 04:52:10;;;;;;;13.75;1.83;;;3.40;99.90;;;;;;5071523;28;20064;-74
2021/12/10 04:54:40;;;;;;;14.60;2.38;;;3.40;99.90;;;;;;5070675;28;20055;-73
2021/12/10 04:57:08;;;;;;;10.00;1.40;;;3.30;99.90;;;;;;5071517;28;20049;-75
2021/12/10 04:59:37;;;;;;;18.83;2.00;;;3.30;99.90;;;;;;5071987;28;20391;-74
2021/12/10 05:02:08;;;;;;;22.15;1.80;;;3.20;99.90;;;;;;5071805;28;20510;-75
2021/12/10 05:04:37;;;;;;;8.82;1.17;;;3.20;99.90;;;;;;5072030;28;20079;-74
2021/12/10 05:07:06;;;;;;;9.43;1.05;;;3.30;99.90;;;;;;5071625;28;20507;-74
2021/12/10 05:09:34;;;;;;;16.75;2.17;;;3.30;99.90;;;;;;5070806;28;20059;-75
2021/12/10 05:12:02;;;;;;;11.43;1.45;;;3.30;99.90;;;;;;5070653;28;20511;-74
2021/12/10 05:14:31;;;;;;;12.75;1.52;;;3.40;99.90;;;;;;5071772;28;20060;-67
2021/12/10 05:17:04;;;;;;;9.45;1.45;;;3.40;99.90;;;;;;5070000;28;20048;-67
2021/12/10 05:19:33;;;;;;;16.90;1.80;;;3.40;99.90;;;;;;5071330;28;20628;-66
2021/12/10 05:22:04;;;;;;;9.40;1.10;;;3.40;99.90;;;;;;5049838;28;20045;-66
2021/12/10 05:24:32;;;;;;;10.15;1.20;;;3.30;99.90;;;;;;5071177;28;20048;-66
2021/12/10 05:27:00;;;;;;;13.05;1.90;;;3.30;99.90;;;;;;5069715;28;20060;-65
2021/12/10 05:29:29;;;;;;;10.55;1.65;;;3.20;99.90;;;;;;5072523;28;20059;-65
2021/12/10 05:31:58;;;;;;;9.32;2.03;;;3.10;99.90;;;;;;5075259;28;20052;-65
2021/12/10 05:34:26;;;;;;;11.70;1.15;;;3.10;99.90;;;;;;5074258;28;20049;-66
2021/12/10 05:36:57;;;;;;;15.23;1.98;;;3.10;99.90;;;;;;5075635;28;20053;-66
2021/12/10 05:39:25;;;;;;;12.15;1.10;;;3.10;99.90;;;;;;5074124;28;20396;-67
2021/12/10 05:41:54;;;;;;;14.18;1.92;;;3.10;99.90;;;;;;5075383;28;20048;-66
2021/12/10 05:44:22;;;;;;;15.48;1.77;;;3.10;99.90;;;;;;5075342;28;20055;-66
2021/12/10 05:46:50;;;;;;;11.48;1.42;;;3.10;99.90;;;;;;5074321;28;20496;-68
2021/12/10 05:49:17;;;;;;;5.00;1.40;;;3.00;99.90;;;;;;5050662;28;20049;-65
2021/12/10 05:51:45;;;;;;;13.25;2.03;;;3.00;99.90;;;;;;5051960;28;20053;-65
2021/12/10 05:54:13;;;;;;;18.63;1.85;;;3.00;99.90;;;;;;5053748;28;20496;-66
2021/12/10 05:56:41;;;;;;;17.52;1.88;;;3.00;99.90;;;;;;5071224;28;20044;-66
2021/12/10 05:59:09;;;;;;;9.90;1.58;;;3.10;99.90;;;;;;5071525;28;20480;-66
2021/12/10 06:01:37;;;;;;;14.35;2.00;;;3.10;99.90;;;;;;5069344;28;20048;-66
2021/12/10 06:04:05;;;;;;;16.42;2.40;;;3.20;99.90;;;;;;5047628;28;20488;-65
2021/12/10 06:06:33;;;;;;;16.60;1.67;;;3.20;99.90;;;;;;5065274;28;20044;-66
2021/12/10 06:09:06;;;;;;;10.35;1.55;;;3.20;99.90;;;;;;5066467;28;20047;-67
2021/12/10 06:11:34;;;;;;;14.93;1.40;;;3.20;99.90;;;;;;5068326;28;20056;-68
2021/12/10 06:14:03;;;;;;;16.55;1.65;;;3.30;99.90;;;;;;5067361;28;20298;-66
2021/12/10 06:16:31;;;;;;;12.55;1.95;;;3.40;99.90;;;;;;5066920;28;20039;-67
2021/12/10 06:18:59;;;;;;;12.48;1.67;;;3.50;99.90;;;;;;5067694;28;20051;-68
2021/12/10 06:21:28;;;;;;;26.95;1.95;;;3.50;99.90;;;;;;5068647;28;20060;-66
2021/12/10 06:23:56;;;;;;;11.98;1.75;;;3.50;99.90;;;;;;5067040;28;20078;-66
2021/12/10 06:26:24;;;;;;;11.65;1.60;;;3.60;99.90;;;;;;5068397;28;20049;-65
2021/12/10 06:28:51;;;;;;;23.35;2.28;;;3.60;99.90;;;;;;5070955;28;20705;-66
2021/12/10 06:31:21;;;;;;;25.13;1.77;;;3.50;99.90;;;;;;5069151;28;20048;-68
2021/12/10 06:33:50;;;;;;;13.88;1.67;;;3.50;99.90;;;;;;5067222;28;20092;-66
2021/12/10 06:36:20;;;;;;;10.48;1.67;;;3.50;99.90;;;;;;5047116;28;20063;-66
2021/12/10 06:38:48;;;;;;;22.38;3.58;;;3.50;99.90;;;;;;5078807;28;20051;-67
2021/12/10 06:41:17;;;;;;;13.95;1.77;;;3.40;99.90;;;;;;5064657;28;20068;-67
2021/12/10 06:43:46;;;;;;;23.25;2.30;;;3.40;99.90;;;;;;5067493;28;20040;-66
2021/12/10 06:46:14;;;;;;;9.48;1.40;;;3.40;99.90;;;;;;5067511;28;20049;-66
2021/12/10 06:48:42;;;;;;;17.05;2.33;;;3.40;99.90;;;;;;5042586;28;20404;-67
2021/12/10 06:51:15;;;;;;;14.57;1.40;;;3.40;99.90;;;;;;5069407;28;20079;-66
2021/12/10 06:53:44;;;;;;;9.85;1.20;;;3.40;99.90;;;;;;5068986;28;20048;-65
2021/12/10 06:56:14;;;;;;;13.95;1.77;;;3.40;99.90;;;;;;5070446;28;20496;-71
2021/12/10 06:58:43;;;;;;;17.05;1.60;;;3.40;99.90;;;;;;5069210;28;20051;-65
2021/12/10 07:01:39;;;;;;;8.70;1.13;;;3.50;99.90;;;;;;5069583;28;20405;-66
2021/12/10 07:04:11;;;;;;;8.15;1.30;;;3.60;99.90;;;;;;5066306;28;20476;-65
2021/12/10 07:06:43;;;;;;;7.28;1.00;;;3.50;99.90;;;;;;5068439;28;20404;-65
2021/12/10 07:09:15;;;;;;;4.03;0.45;;;3.50;99.90;;;;;;5068568;28;20052;-66
2021/12/10 07:11:44;;;;;;;9.10;1.30;;;3.30;99.90;;;;;;5069971;28;20037;-64
2021/12/10 07:14:12;;;;;;;3.88;0.70;;;3.20;99.90;;;;;;5062125;28;20056;-70
2021/12/10 07:16:40;;;;;;;10.65;1.52;;;3.10;99.90;;;;;;5050144;28;20048;-70
2021/12/10 07:19:08;;;;;;;8.80;0.68;;;3.10;99.90;;;;;;5068763;28;20047;-71
2021/12/10 07:21:37;;;;;;;5.22;0.88;;;3.10;99.90;;;;;;5069548;28;20044;-70
2021/12/10 07:24:14;;;;;;;7.25;1.27;;;3.00;99.90;;;;;;5069302;28;20488;-72
2021/12/10 07:26:44;;;;;;;6.88;0.93;;;3.00;99.90;;;;;;5069842;28;20370;-70
2021/12/10 07:29:12;;;;;;;5.53;0.73;;;3.00;99.90;;;;;;5067747;28;20045;-71
2021/12/10 07:31:42;;;;;;;5.53;1.10;;;3.00;99.90;;;;;;5066355;28;20044;-75
2021/12/10 07:34:11;;;;;;;7.68;1.27;;;3.00;99.90;;;;;;5064218;28;20481;-72
2021/12/10 07:36:40;;;;;;;5.05;1.13;;;3.00;99.90;;;;;;5066941;28;20059;-75
2021/12/10 07:39:09;;;;;;;12.00;1.23;;;3.00;99.90;;;;;;5068594;28;20052;-75
2021/12/10 07:41:40;;;;;;;7.38;1.27;;;3.00;99.90;;;;;;5068472;28;20060;-75
2021/12/10 07:44:10;;;;;;;8.95;0.95;;;3.10;99.90;;;;;;5064372;28;20044;-75
2021/12/10 07:46:40;;;;;;;10.07;1.52;;;3.00;99.90;;;;;;5050675;28;20476;-71
2021/12/10 07:49:16;;;;;;;25.60;3.38;;;3.00;99.90;;;;;;5065755;28;20050;-72
2021/12/10 07:51:49;;;;;;;9.15;1.70;;;3.10;99.90;;;;;;5066321;28;20051;-73
2021/12/10 07:54:18;;;;;;;8.23;1.42;;;3.10;99.90;;;;;;5068752;28;20484;-74
2021/12/10 07:56:51;;;;;;;8.27;1.30;;;3.00;99.90;;;;;;5066939;28;20057;-65
2021/12/10 07:59:19;;;;;;;11.85;1.23;;;3.00;99.90;;;;;;5064832;28;20047;-70
2021/12/10 08:01:47;;;;;;;9.20;1.13;;;3.00;99.90;;;;;;5064334;28;20071;-69
2021/12/10 08:04:15;;;;;;;17.70;2.00;;;2.90;99.90;;;;;;5057850;28;20037;-67
2021/12/10 08:06:44;;;;;;;9.57;1.90;;;2.90;99.90;;;;;;5064088;28;20055;-66
2021/12/10 08:09:11;;;;;;;16.85;1.65;;;2.90;99.90;;;;;;5065964;28;20044;-70
2021/12/10 08:11:40;;;;;;;10.93;1.27;;;2.90;99.90;;;;;;5049380;28;20041;-64
2021/12/10 08:14:08;;;;;;;6.30;2.20;;;2.90;99.90;;;;;;5066173;28;20048;-65
2021/12/10 08:16:37;;;;;;;14.13;2.58;;;3.00;99.90;;;;;;5066736;28;20051;-66
2021/12/10 08:19:07;;;;;;;12.05;1.45;;;3.00;99.90;;;;;;5058630;28;20425;-66
2021/12/10 08:21:34;;;;;;;16.03;2.17;;;3.00;99.90;;;;;;5048874;28;20475;-66
2021/12/10 08:24:02;;;;;;;16.45;2.10;;;2.90;99.90;;;;;;5066610;28;20131;-68
2021/12/10 08:26:30;;;;;;;12.35;2.08;;;2.90;99.90;;;;;;5067384;28;20044;-67
2021/12/10 08:28:58;;;;;;;10.98;1.83;;;2.90;99.90;;;;;;5067401;28;20403;-66
2021/12/10 08:31:28;;;;;;;11.35;3.35;;;2.80;99.90;;;;;;5068846;28;20381;-68
2021/12/10 08:33:57;;;;;;;9.75;1.58;;;2.80;99.90;;;;;;5067009;28;20063;-66
2021/12/10 08:36:27;;;;;;;12.65;1.15;;;2.80;99.90;;;;;;5063067;28;20048;-67
2021/12/10 08:38:54;;;;;;;;;;;2.80;99.90;;;;;;5061310;28;20040;-67
2021/12/10 08:41:26;;;;;;;12.80;2.30;;;2.90;99.90;;;;;;5050242;28;20295;-66
2021/12/10 08:43:56;;;;;;;13.13;1.48;;;2.90;99.90;;;;;;5064045;28;20048;-72
2021/12/10 08:46:25;;;;;;;;;;;2.90;99.90;;;;;;5054470;28;20051;-69
2021/12/10 08:48:56;;;;;;;14.52;1.60;;;3.00;99.90;;;;;;5068446;28;20364;-69
2021/12/10 08:51:29;;;;;;;20.73;2.45;;;3.00;99.90;;;;;;5069011;28;20040;-72
2021/12/10 08:54:00;;;;;;;17.33;1.60;;;3.00;99.90;;;;;;5066814;28;20051;-67
2021/12/10 08:56:29;;;;;;;9.65;2.10;;;3.10;99.90;;;;;;5067438;28;20055;-67
2021/12/10 08:58:58;;;;;;;19.52;2.25;;;3.10;99.90;;;;;;5062398;28;20485;-64
2021/12/10 09:01:33;;;;;;;18.35;2.60;;;3.20;99.90;;;;;;5063924;28;20044;-67
2021/12/10 09:04:06;;;;;;;16.05;1.83;;;3.30;99.90;;;;;;5064006;28;20049;-65
2021/12/10 09:06:38;;;;;;;39.85;3.33;;;3.20;99.90;;;;;;5065823;28;20388;-69
2021/12/10 09:09:12;;;;;;;15.25;2.05;;;3.30;99.90;;;;;;5063994;28;20053;-70
2021/12/10 09:11:44;;;;;;;17.65;2.53;;;3.30;99.90;;;;;;5065388;28;20045;-71
2021/12/10 09:14:26;;;;;;;16.57;1.70;;;3.40;99.90;;;;;;5063459;28;20530;-65
2021/12/10 09:16:57;;;;;;;10.73;1.55;;;3.40;99.90;;;;;;5064768;28;20301;-65
2021/12/10 09:19:25;;;;;;;19.38;2.17;;;3.40;99.90;;;;;;5064095;28;20044;-68
2021/12/10 09:21:54;;;;;;;15.45;2.42;;;3.50;99.90;;;;;;5065289;28;20507;-68
2021/12/10 09:24:24;;;;;;;14.93;4.47;;;3.50;99.90;;;;;;5063281;28;20181;-64
2021/12/10 09:26:56;;;;;;;13.40;4.32;;;3.60;99.90;;;;;;5064570;28;20048;-67
2021/12/10 09:29:27;;;;;;;14.70;2.90;;;3.60;99.90;;;;;;5059155;28;20048;-64
2021/12/10 09:31:55;;;;;;;14.18;2.75;;;3.60;99.90;;;;;;5046540;28;20057;-71
2021/12/10 09:34:24;;;;;;;19.45;5.15;;;3.70;99.90;;;;;;5064387;28;20435;-72
2021/12/10 09:36:52;;;;;;;8.93;2.08;;;3.80;99.90;;;;;;5064892;28;20044;-77
2021/12/10 09:39:21;;;;;;;58.10;21.33;;;3.90;99.90;;;;;;5063160;28;20052;-78
2021/12/10 09:41:53;;;;;;;15.07;4.70;;;3.90;99.90;;;;;;5064427;28;20049;-72
2021/12/10 09:44:21;;;;;;;12.38;1.60;;;3.90;99.90;;;;;;5060592;28;20049;-64
2021/12/10 09:46:50;;;;;;;20.50;2.08;;;3.90;99.90;;;;;;5064357;28;20063;-67
2021/12/10 09:49:23;;;;;;;12.98;1.83;;;4.00;99.90;;;;;;5044827;28;20052;-65
2021/12/10 09:51:56;;;;;;;10.23;1.40;;;4.00;99.90;;;;;;5044240;28;20045;-66
2021/12/10 09:54:29;;;;;;;20.20;2.40;;;4.10;99.90;;;;;;5057582;28;20044;-63
2021/12/10 09:57:04;;;;;;;10.68;1.40;;;4.20;99.90;;;;;;5064224;28;20051;-64
2021/12/10 09:59:34;;;;;;;11.57;1.77;;;4.20;99.90;;;;;;5064334;28;20067;-66
2021/12/10 10:02:03;;;;;;;18.85;1.52;;;4.30;99.90;;;;;;5062732;28;20496;-64
2021/12/10 10:04:35;;;;;;;;;;;4.30;99.90;;;;;;5060485;28;20057;-64
2021/12/10 10:07:10;;;;;;;15.88;1.23;;;4.40;99.90;;;;;;5063934;28;20364;-65
2021/12/10 10:09:39;;;;;;;12.30;1.90;;;4.40;99.90;;;;;;5064809;28;20124;-64
2021/12/10 10:12:12;;;;;;;3.87;0.70;;;4.50;99.90;;;;;;5062615;28;20049;-66
2021/12/10 10:14:42;;;;;;;15.85;1.45;;;4.50;99.90;;;;;;5065033;28;20677;-82
2021/12/10 10:17:12;;;;;;;11.80;2.15;;;4.60;99.90;;;;;;5066242;28;20041;-81
2021/12/10 10:19:40;;;;;;;15.60;1.80;;;4.60;99.90;;;;;;5046432;28;20057;-77
2021/12/10 10:22:15;;;;;;;14.05;2.50;;;4.70;99.90;;;;;;5049931;28;20045;-80
2021/12/10 10:24:46;;;;;;;22.02;4.50;;;4.70;99.90;;;;;;5066364;28;20408;-82
2021/12/10 10:27:22;;;;;;;7.20;1.40;;;4.60;99.90;;;;;;5067746;28;20056;-80
2021/12/10 10:29:58;;;;;;;13.18;1.70;;;4.60;99.90;;;;;;5066960;28;20052;-71
2021/12/10 10:32:33;;;;;;;13.57;1.42;;;4.60;99.90;;;;;;5068607;28;20053;-79
2021/12/10 10:35:08;;;;;;;11.70;2.08;;;4.70;99.90;;;;;;5066786;28;20044;-65
2021/12/10 10:37:36;;;;;;;10.95;1.35;;;4.80;99.90;;;;;;5067247;28;20051;-74
2021/12/10 10:40:10;;;;;;;11.13;1.13;;;4.90;99.90;;;;;;5067412;28;20063;-77
2021/12/10 10:42:38;;;;;;;7.47;1.10;;;5.10;99.90;;;;;;5067340;28;20067;-70
2021/12/10 10:45:17;;;;;;;9.70;1.55;;;5.10;99.90;;;;;;5067613;28;20059;-69
2021/12/10 10:47:45;;;;;;;15.43;5.03;;;5.10;99.90;;;;;;5065251;28;20497;-75
2021/12/10 10:50:40;;;;;;;15.63;3.42;;;5.10;99.90;;;;;;5047389;28;20048;-68
2021/12/10 10:53:12;;;;;;;12.07;2.75;;;5.20;99.90;;;;;;5056797;28;20060;-65
2021/12/10 10:55:57;;;;;;;9.32;2.03;;;5.30;99.90;;;;;;5066754;28;20056;-68
2021/12/10 10:58:31;;;;;;;12.30;1.55;;;5.30;99.90;;;;;;5066873;28;20055;-76
2021/12/10 11:01:10;;;;;;;11.75;1.98;;;5.30;99.90;;;;;;5067257;28;20048;-78
2021/12/10 11:03:58;;;;;;;14.52;1.90;;;5.20;99.90;;;;;;5065978;28;20503;-77
2021/12/10 11:06:44;;;;;;;13.65;1.50;;;5.30;99.90;;;;;;5065726;28;20492;-65
2021/12/10 11:09:14;;;;;;;9.95;1.35;;;5.30;99.90;;;;;;5066976;28;20476;-80
2021/12/10 11:11:48;;;;;;;;;;;5.30;99.90;;;;;;5067331;28;20404;-77
2021/12/10 11:14:20;;;;;;;11.55;1.20;;;5.30;99.90;;;;;;5065346;28;19951;-74
2021/12/10 11:16:55;;;;;;;10.55;1.80;;;5.40;99.90;;;;;;5066539;28;20049;-71
2021/12/10 11:20:25;;;;;;;15.07;2.05;;;5.50;99.90;;;;;;5061495;28;20048;-77
2021/12/10 11:22:58;;;;;;;22.00;2.35;;;5.70;99.90;;;;;;5024443;28;20060;-65
2021/12/10 11:25:36;;;;;;;10.27;1.60;;;5.90;99.90;;;;;;5041147;28;20052;-66
2021/12/10 11:28:09;;;;;;;7.60;1.20;;;6.10;99.90;;;;;;5053914;28;20056;-68
2021/12/10 11:30:48;;;;;;;12.18;2.15;;;6.20;99.90;;;;;;5066497;28;20527;-67
2021/12/10 11:33:20;;;;;;;14.95;3.17;;;6.40;99.90;;;;;;5063029;28;20048;-65
2021/12/10 11:35:54;;;;;;;12.30;1.98;;;6.40;99.90;;;;;;5046464;28;20036;-75
2021/12/10 11:38:28;;;;;;;28.52;7.60;;;6.40;99.90;;;;;;5057057;28;20046;-75
2021/12/10 11:41:00;;;;;;;9.57;2.15;;;6.30;99.90;;;;;;5066510;28;20052;-79
2021/12/10 11:47:14;;;;;;;22.75;4.32;;;6.20;99.90;;;;;;5057528;28;20508;-74
2021/12/10 11:49:42;;;;;;;10.82;1.85;;;6.30;99.90;;;;;;5060554;28;20045;-75
2021/12/10 11:52:13;;;;;;;22.98;4.70;;;6.40;99.90;;;;;;5046563;28;20384;-77
2021/12/10 11:54:51;;;;;;;14.57;3.90;;;6.40;99.90;;;;;;5065751;28;20037;-77
2021/12/10 11:57:27;;;;;;;17.48;3.00;;;6.30;99.90;;;;;;5065478;28;20051;-76
2021/12/10 12:00:02;;;;;;;15.00;2.25;;;6.30;99.90;;;;;;5065783;28;20045;-79
2021/12/10 12:02:49;;;;;;;8.93;1.33;;;6.20;99.90;;;;;;5065856;28;20055;-68
2021/12/10 12:05:21;;;;;;;7.53;2.20;;;6.00;99.90;;;;;;5047626;28;20091;-69
2021/12/10 12:07:54;;;;;;;10.32;1.63;;;5.80;99.90;;;;;;5051401;28;20554;-72
2021/12/10 12:10:27;;;;;;;14.05;1.38;;;5.70;99.90;;;;;;5064545;28;20098;-72
2021/12/10 12:12:59;;;;;;;6.68;1.80;;;5.50;99.90;;;;;;5065227;28;20044;-70
2021/12/10 12:15:34;;;;;;;16.10;1.83;;;5.60;99.90;;;;;;5065490;28;20290;-74
2021/12/10 12:18:08;;;;;;;8.07;1.20;;;5.60;99.90;;;;;;5065157;28;20530;-75
2021/12/10 12:21:00;;;;;;;8.77;1.50;;;5.70;99.90;;;;;;5045399;28;20060;-75
2021/12/10 12:26:22;;;;;;;;;;;5.90;99.90;;;;;;5066148;28;20509;-78
2021/12/10 12:29:14;;;;;;;7.30;1.42;;;6.00;99.90;;;;;;5063882;28;19924;-70
2021/12/10 12:31:53;;;;;;;11.75;1.75;;;6.10;99.90;;;;;;5065484;28;20053;-71
2021/12/10 12:34:26;;;;;;;18.13;1.60;;;6.10;99.90;;;;;;5057046;28;20049;-65
2021/12/10 12:37:14;;;;;;;11.30;1.48;;;5.90;99.90;;;;;;5046201;28;20041;-74
2021/12/10 12:40:04;;;;;;;8.38;1.65;;;5.80;99.90;;;;;;5064536;28;20071;-74
2021/12/10 12:42:35;;;;;;;14.00;1.40;;;5.60;99.90;;;;;;5064777;28;20048;-72
2021/12/10 12:45:30;;;;;;;9.70;0.82;;;5.50;99.90;;;;;;5064764;28;20053;-79
2021/12/10 12:48:19;;;;;;;11.00;1.15;;;5.40;99.90;;;;;;5064516;28;20055;-78
2021/12/10 12:50:47;;;;;;;19.40;1.48;;;5.40;99.90;;;;;;5046014;28;20045;-75
2021/12/10 12:53:22;;;;;;;8.93;0.88;;;5.30;99.90;;;;;;5054643;28;20051;-70
2021/12/10 12:56:00;;;;;;;7.35;0.77;;;5.30;99.90;;;;;;5065486;28;20059;-74
2021/12/10 12:59:08;;;;;;;8.18;0.73;;;5.10;99.90;;;;;;5063804;28;20077;-69
2021/12/10 13:01:40;;;;;;;6.75;1.45;;;5.00;99.90;;;;;;5063878;28;20808;-66
2021/12/10 13:04:18;;;;;;;6.25;1.70;;;5.00;99.90;;;;;;5063314;28;20041;-66
2021/12/10 13:07:18;;;;;;;8.68;1.10;;;4.90;99.90;;;;;;5065620;28;20242;-68
2021/12/10 13:09:56;;;;;;;8.93;1.40;;;4.90;99.90;;;;;;5064820;28;20666;-66
2021/12/10 13:15:10;;;;;;;13.57;2.00;;;4.90;99.90;;;;;;5064673;28;20049;-70
2021/12/10 13:17:45;;;;;;;9.57;2.00;;;4.90;99.90;;;;;;5064181;28;20052;-68
2021/12/10 13:20:21;;;;;;;8.88;1.30;;;4.90;99.90;;;;;;5050993;28;20060;-64
2021/12/10 13:22:52;;;;;;;7.13;1.85;;;4.90;99.90;;;;;;5048943;28;20527;-69
2021/12/10 13:25:25;;;;;;;10.25;1.90;;;4.90;99.90;;;;;;5063645;28;20504;-66
2021/12/10 13:27:57;;;;;;;8.75;1.80;;;4.90;99.90;;;;;;5064378;28;20062;-65
2021/12/10 13:30:29;;;;;;;11.80;1.40;;;4.90;99.90;;;;;;5064865;28;20047;-70
2021/12/10 13:32:57;;;;;;;8.30;0.85;;;4.90;99.90;;;;;;5064356;28;20207;-67
2021/12/10 13:35:29;;;;;;;9.82;1.23;;;5.00;99.90;;;;;;5049757;28;20424;-65